Time;durP1;ratioP1;P1;durP2;ratioP2;P2;SDS_P1;SDS_P2;PMS_P1;PMS_P2;Temp;Humidity;BMP_temperature;BMP_pressure;BME280_temperature;BME280_humidity;BME280_pressure;Samples;Min_cycle;Max_cycle;Signal;HPM_P1;HPM_P2
2024/01/20 00:02:23;;;;;;;1.80;1.70;;;20.80;37.10;;;;;;220956;1273;24418;-48
2024/01/20 00:07:27;;;;;;;1.70;1.60;;;20.70;37.20;;;;;;221427;1273;24424;-48
2024/01/20 00:12:35;;;;;;;1.70;1.60;;;20.60;37.30;;;;;;221278;1267;25282;-48
2024/01/20 00:17:59;;;;;;;1.80;1.60;;;20.50;37.40;;;;;;220517;1274;24385;-47
2024/01/20 00:23:08;;;;;;;2.00;1.70;;;20.30;37.70;;;;;;221092;1271;24222;-47
2024/01/20 00:28:26;;;;;;;;;;;;;;;;;;;;;
2024/01/20 00:33:40;;;;;;;1.90;1.40;;;19.90;38.80;;;;;;222454;1256;22544;-44
2024/01/20 00:38:54;;;;;;;3.00;1.90;;;19.80;38.70;;;;;;222791;1261;22513;-47
2024/01/20 00:43:58;;;;;;;2.00;1.60;;;19.70;38.80;;;;;;222353;1260;24346;-50
2024/01/20 00:49:03;;;;;;;1.70;1.50;;;19.80;38.70;;;;;;222881;1263;22847;-46
2024/01/20 00:54:14;;;;;;;1.70;1.60;;;19.70;39.00;;;;;;222559;1264;25516;-46
2024/01/20 00:59:21;;;;;;;1.70;1.60;;;19.60;38.80;;;;;;222576;1268;22698;-45
2024/01/20 01:04:29;;;;;;;1.90;1.60;;;19.50;38.70;;;;;;222402;1264;24218;-46
2024/01/20 01:09:37;;;;;;;2.40;1.60;;;19.50;38.90;;;;;;222667;1261;22557;-47
2024/01/20 01:14:42;;;;;;;1.50;1.30;;;19.40;39.40;;;;;;222587;1261;24191;-44
2024/01/20 01:20:00;;;;;;;2.20;1.60;;;19.30;39.10;;;;;;222236;1264;22735;-47
2024/01/20 01:25:09;;;;;;;1.50;1.40;;;19.20;39.30;;;;;;221546;1264;25249;-47
2024/01/20 01:30:14;;;;;;;1.60;1.50;;;19.20;39.30;;;;;;221205;1264;22582;-45
2024/01/20 01:35:21;;;;;;;2.60;1.80;;;19.90;38.60;;;;;;221619;1271;23299;-45
2024/01/20 01:40:26;;;;;;;1.70;1.40;;;20.40;37.80;;;;;;221652;1263;24051;-45
2024/01/20 01:45:33;;;;;;;1.80;1.60;;;20.70;37.00;;;;;;221730;1269;22535;-47
2024/01/20 01:50:48;;;;;;;1.90;1.70;;;20.80;36.90;;;;;;221594;1267;24206;-46
2024/01/20 01:55:56;;;;;;;2.20;1.50;;;20.70;37.00;;;;;;222170;1267;22583;-50
2024/01/20 02:01:15;;;;;;;1.50;1.40;;;20.60;36.70;;;;;;222120;1264;24215;-46
2024/01/20 02:06:19;;;;;;;1.30;1.20;;;20.40;37.60;;;;;;222844;1260;25330;-48
2024/01/20 02:11:25;;;;;;;2.20;1.90;;;20.20;37.90;;;;;;222627;1261;23749;-48
2024/01/20 02:16:29;;;;;;;2.30;1.80;;;20.10;38.10;;;;;;222489;1244;22522;-45
2024/01/20 02:21:36;;;;;;;2.30;1.80;;;20.00;38.40;;;;;;222817;1265;24194;-46
2024/01/20 02:26:40;;;;;;;2.50;1.50;;;19.80;38.40;;;;;;223130;1245;22536;-45
2024/01/20 02:31:52;;;;;;;2.60;1.80;;;19.70;38.70;;;;;;222468;1260;24222;-48
2024/01/20 02:37:00;;;;;;;1.60;1.50;;;19.70;38.80;;;;;;222637;1264;22533;-45
2024/01/20 02:42:09;;;;;;;1.70;1.60;;;19.70;38.60;;;;;;222524;1267;24249;-47
2024/01/20 02:47:14;;;;;;;3.40;2.10;;;19.70;38.50;;;;;;222728;1265;22534;-47
2024/01/20 02:52:19;;;;;;;1.90;1.50;;;19.60;38.60;;;;;;222717;1260;22673;-48
2024/01/20 02:57:25;;;;;;;3.00;1.70;;;19.50;38.60;;;;;;222198;1263;24198;-46
2024/01/20 03:02:30;;;;;;;3.70;1.40;;;19.50;38.70;;;;;;222231;1261;22520;-47
2024/01/20 03:07:35;;;;;;;1.90;1.50;;;19.30;38.50;;;;;;222520;1260;23144;-46
2024/01/20 03:12:42;;;;;;;1.70;1.50;;;19.30;39.00;;;;;;222487;1260;22578;-46
2024/01/20 03:17:47;;;;;;;3.40;1.70;;;19.50;38.40;;;;;;222336;1244;22609;-49
2024/01/20 03:22:55;;;;;;;1.30;1.20;;;20.10;37.90;;;;;;222905;1267;24392;-47
2024/01/20 03:27:59;;;;;;;1.90;1.60;;;20.60;37.00;;;;;;222604;1265;24213;-45
2024/01/20 03:33:04;;;;;;;2.20;1.60;;;20.90;36.70;;;;;;228816;1261;24225;-46
2024/01/20 03:38:09;;;;;;;3.50;2.10;;;20.90;36.50;;;;;;224802;1265;22535;-48
2024/01/20 03:43:13;;;;;;;3.80;2.20;;;21.00;36.80;;;;;;224910;1260;22672;-46
2024/01/20 03:48:18;;;;;;;4.30;2.20;;;20.70;36.80;;;;;;225187;1261;23921;-45
2024/01/20 03:53:22;;;;;;;2.00;1.40;;;20.60;37.00;;;;;;223241;1265;23729;-49
2024/01/20 03:58:27;;;;;;;2.60;1.70;;;20.40;37.30;;;;;;222702;1267;24713;-47
2024/01/20 04:03:32;;;;;;;1.50;1.30;;;20.20;37.70;;;;;;222098;1267;25493;-44
2024/01/20 04:08:39;;;;;;;1.30;1.20;;;20.10;38.30;;;;;;222818;1257;22534;-47
2024/01/20 04:13:53;;;;;;;1.60;1.50;;;20.00;38.00;;;;;;222297;1267;23796;-46
2024/01/20 04:18:58;;;;;;;4.30;1.60;;;19.80;38.20;;;;;;222974;1264;22592;-48
2024/01/20 04:24:03;;;;;;;1.60;1.50;;;19.70;38.70;;;;;;223125;1262;22536;-45
2024/01/20 04:29:08;;;;;;;2.80;1.90;;;19.80;38.70;;;;;;222090;1246;24202;-48
2024/01/20 04:34:13;;;;;;;1.60;1.50;;;19.70;38.30;;;;;;223873;1254;22520;-47
2024/01/20 04:39:21;;;;;;;1.50;1.30;;;19.70;38.40;;;;;;221959;1261;23921;-46
2024/01/20 04:44:29;;;;;;;1.70;1.50;;;19.60;38.40;;;;;;222052;1256;25269;-48
2024/01/20 04:49:37;;;;;;;1.90;1.40;;;19.40;38.60;;;;;;222174;1271;22532;-47
2024/01/20 04:54:42;;;;;;;1.30;1.20;;;19.30;39.20;;;;;;221479;1264;24221;-48
2024/01/20 04:59:50;;;;;;;1.60;1.40;;;19.20;39.00;;;;;;222271;1260;22687;-46
2024/01/20 05:05:05;;;;;;;1.90;1.50;;;19.80;38.20;;;;;;222490;1243;22518;-47
2024/01/20 05:10:09;;;;;;;1.60;1.50;;;20.40;37.20;;;;;;222322;1264;22643;-47
2024/01/20 05:15:14;;;;;;;2.30;1.70;;;20.80;36.60;;;;;;222342;1260;24176;-46
2024/01/20 05:20:18;;;;;;;1.30;1.20;;;20.80;36.60;;;;;;223623;1263;23896;-45
2024/01/20 05:25:23;;;;;;;1.70;1.40;;;20.70;36.80;;;;;;227717;1264;22680;-46
2024/01/20 05:30:27;;;;;;;1.70;1.30;;;20.80;36.60;;;;;;223553;1259;22514;-44
2024/01/20 05:35:32;;;;;;;1.60;1.40;;;20.70;36.80;;;;;;222946;1267;24288;-46
2024/01/20 05:40:46;;;;;;;1.90;1.20;;;20.50;37.20;;;;;;222064;1264;22559;-45
2024/01/20 05:45:50;;;;;;;1.90;1.50;;;20.10;38.10;;;;;;221969;1264;406943;-47
2024/01/20 05:50:55;;;;;;;2.60;1.80;;;20.00;38.00;;;;;;222665;1267;22520;-48
2024/01/20 05:56:02;;;;;;;2.10;1.70;;;19.90;38.50;;;;;;222352;1253;25392;-47
2024/01/20 06:01:09;;;;;;;1.50;1.30;;;19.80;38.30;;;;;;222782;1256;22605;-46
2024/01/20 06:06:14;;;;;;;2.00;1.60;;;19.70;38.30;;;;;;223465;1247;22526;-47
2024/01/20 06:11:19;;;;;;;1.40;1.30;;;19.70;38.60;;;;;;222939;1260;25399;-48
2024/01/20 06:16:24;;;;;;;1.30;1.20;;;19.70;38.20;;;;;;222867;1266;22516;-48
2024/01/20 06:21:33;;;;;;;2.40;1.60;;;19.60;38.20;;;;;;222504;1264;22520;-48
2024/01/20 06:26:40;;;;;;;1.40;1.20;;;19.50;38.70;;;;;;222295;1266;22541;-46
2024/01/20 06:32:06;;;;;;;1.60;1.50;;;19.50;38.40;;;;;;222445;1263;24199;-47
2024/01/20 06:37:14;;;;;;;2.00;1.90;;;19.30;38.60;;;;;;222545;1267;23809;-46
2024/01/20 06:42:21;;;;;;;2.20;1.90;;;19.30;38.60;;;;;;222289;1254;24199;-46
2024/01/20 06:47:35;;;;;;;1.70;1.50;;;19.30;38.60;;;;;;222830;1264;26520;-47
2024/01/20 06:52:40;;;;;;;1.30;1.20;;;19.20;38.80;;;;;;222737;1261;25421;-47
2024/01/20 06:57:49;;;;;;;1.60;1.30;;;19.10;38.80;;;;;;223180;1264;24193;-46
2024/01/20 07:03:00;;;;;;;1.20;1.10;;;19.20;38.60;;;;;;222706;1265;24418;-47
2024/01/20 07:08:06;;;;;;;3.10;1.90;;;19.10;38.50;;;;;;222968;1253;23956;-46
2024/01/20 07:13:24;;;;;;;2.70;1.60;;;19.00;38.80;;;;;;223138;1267;22521;-49
2024/01/20 07:18:35;;;;;;;2.10;1.60;;;19.00;39.20;;;;;;222223;1262;22655;-46
2024/01/20 07:24:04;;;;;;;1.70;1.40;;;18.90;39.00;;;;;;222400;1264;24251;-47
2024/01/20 07:29:08;;;;;;;1.40;1.20;;;18.80;39.10;;;;;;222810;1267;24215;-46
2024/01/20 07:34:13;;;;;;;1.90;1.30;;;18.90;39.00;;;;;;222447;1264;22537;-47
2024/01/20 07:39:22;;;;;;;1.40;1.10;;;19.30;38.60;;;;;;222139;1265;24337;-45
2024/01/20 07:44:32;;;;;;;1.60;1.40;;;20.00;37.50;;;;;;223661;1262;25416;-46
2024/01/20 07:49:38;;;;;;;1.40;1.30;;;20.40;37.00;;;;;;222722;1262;22525;-47
2024/01/20 07:54:50;;;;;;;3.60;1.80;;;20.40;37.20;;;;;;222685;1260;22530;-45
2024/01/20 08:00:04;;;;;;;2.10;1.40;;;20.40;36.90;;;;;;222644;1266;24641;-48
2024/01/20 08:05:11;;;;;;;2.30;1.60;;;20.30;37.20;;;;;;223020;1262;23324;-48
2024/01/20 08:10:16;;;;;;;1.30;1.00;;;19.90;37.90;;;;;;222699;1244;22525;-46
2024/01/20 08:15:22;;;;;;;1.40;1.30;;;19.70;38.10;;;;;;222402;1262;26302;-46
2024/01/20 08:20:27;;;;;;;1.50;1.40;;;19.80;38.10;;;;;;222189;1256;25458;-46
2024/01/20 08:25:35;;;;;;;2.90;1.80;;;19.70;38.10;;;;;;222538;1264;23470;-47
2024/01/20 08:30:43;;;;;;;2.20;1.40;;;19.80;37.90;;;;;;222757;1266;24174;-46
2024/01/20 08:35:51;;;;;;;1.80;1.60;;;19.60;38.10;;;;;;222442;1252;22520;-46
2024/01/20 08:40:55;;;;;;;2.00;1.40;;;19.40;38.40;;;;;;222616;1262;22529;-47
2024/01/20 08:46:17;;;;;;;2.20;1.30;;;19.30;38.60;;;;;;222618;1263;22650;-45
2024/01/20 08:51:28;;;;;;;1.60;1.30;;;19.30;38.80;;;;;;223001;1263;22533;-46
2024/01/20 08:56:34;;;;;;;1.90;1.20;;;19.30;38.80;;;;;;222469;1260;22522;-47
2024/01/20 09:01:39;;;;;;;1.70;1.40;;;19.20;38.90;;;;;;222682;1267;24238;-47
2024/01/20 09:06:47;;;;;;;3.10;1.70;;;19.10;39.00;;;;;;222488;1267;25499;-48
2024/01/20 09:12:03;;;;;;;1.80;1.30;;;19.00;39.10;;;;;;222558;1259;22514;-46
2024/01/20 09:17:08;;;;;;;1.40;1.10;;;18.90;39.30;;;;;;222803;1264;25341;-47
2024/01/20 09:22:18;;;;;;;1.40;1.30;;;18.90;39.40;;;;;;222778;1265;22642;-46
2024/01/20 09:27:23;;;;;;;1.70;1.30;;;18.90;39.50;;;;;;223165;1266;22544;-49
2024/01/20 09:32:30;;;;;;;1.70;1.20;;;18.90;39.40;;;;;;222607;1262;24366;-45
2024/01/20 09:37:36;;;;;;;1.40;1.30;;;18.90;39.50;;;;;;222576;1266;22629;-45
2024/01/20 09:42:41;;;;;;;1.40;1.20;;;18.90;39.50;;;;;;222781;1263;22593;-46
2024/01/20 09:47:49;;;;;;;1.50;1.10;;;19.00;39.80;;;;;;222959;1261;22558;-45
2024/01/20 09:53:01;;;;;;;1.30;1.20;;;19.00;39.80;;;;;;222873;1265;22520;-47
2024/01/20 09:58:06;;;;;;;2.70;1.80;;;19.00;39.30;;;;;;222780;1260;25386;-57
2024/01/20 10:03:15;;;;;;;2.20;1.60;;;19.00;39.40;;;;;;222902;1266;24361;-48
2024/01/20 10:08:19;;;;;;;1.60;1.50;;;19.00;39.30;;;;;;222800;1264;22524;-47
2024/01/20 10:13:24;;;;;;;1.50;1.20;;;19.10;39.20;;;;;;222853;1267;23809;-46
2024/01/20 10:18:28;;;;;;;1.40;1.20;;;19.10;39.10;;;;;;222421;1267;25233;-45
2024/01/20 10:23:38;;;;;;;1.80;1.40;;;19.20;39.00;;;;;;222402;1264;24323;-48
2024/01/20 10:28:43;;;;;;;1.80;1.40;;;19.10;39.10;;;;;;222623;1263;24425;-48
2024/01/20 10:33:51;;;;;;;2.60;1.40;;;19.20;39.10;;;;;;222535;1264;22678;-48
2024/01/20 10:39:01;;;;;;;1.00;0.90;;;19.20;39.10;;;;;;222842;1260;24337;-49
2024/01/20 10:44:06;;;;;;;1.20;1.00;;;19.20;39.70;;;;;;222295;1267;22524;-45
2024/01/20 10:49:17;;;;;;;1.50;1.20;;;19.20;39.50;;;;;;222610;1259;24197;-47
2024/01/20 10:54:22;;;;;;;1.70;1.10;;;19.10;39.40;;;;;;222817;1259;22587;-46
2024/01/20 10:59:29;;;;;;;1.10;1.00;;;19.10;39.30;;;;;;222579;1265;25538;-45
2024/01/20 11:04:35;;;;;;;1.00;0.90;;;19.10;39.80;;;;;;222916;1262;22950;-46
2024/01/20 11:09:39;;;;;;;1.30;1.20;;;19.10;39.40;;;;;;222933;1262;24242;-46
2024/01/20 11:14:53;;;;;;;2.00;1.40;;;19.80;38.50;;;;;;222924;1262;25353;-48
2024/01/20 11:20:07;;;;;;;1.30;1.10;;;20.50;37.60;;;;;;222845;1267;22649;-46
2024/01/20 11:25:12;;;;;;;1.10;1.00;;;20.60;37.60;;;;;;222646;1256;22520;-47
2024/01/20 11:30:34;;;;;;;1.70;1.20;;;20.70;37.00;;;;;;222308;1263;22544;-47
2024/01/20 11:35:39;;;;;;;1.50;1.20;;;20.90;37.50;;;;;;222665;1256;24372;-46
2024/01/20 11:40:56;;;;;;;1.50;1.30;;;21.00;37.20;;;;;;222915;1244;22517;-50
2024/01/20 11:46:02;;;;;;;1.20;1.10;;;21.20;37.00;;;;;;222851;1267;23273;-46
2024/01/20 11:51:07;;;;;;;1.60;1.30;;;21.40;36.90;;;;;;222451;1261;22665;-46
2024/01/20 11:56:11;;;;;;;1.60;1.30;;;21.80;36.40;;;;;;222629;1268;23292;-47
2024/01/20 12:01:16;;;;;;;1.30;1.10;;;21.90;36.30;;;;;;223018;1267;22518;-49
2024/01/20 12:06:20;;;;;;;2.00;1.00;;;21.80;36.30;;;;;;222945;1265;23015;-48
2024/01/20 12:11:26;;;;;;;1.10;1.00;;;21.80;36.30;;;;;;222485;1261;24059;-50
2024/01/20 12:16:34;;;;;;;1.90;1.20;;;22.00;36.30;;;;;;222322;1262;24369;-47
2024/01/20 12:21:38;;;;;;;1.00;0.90;;;22.10;36.20;;;;;;222459;1262;24371;-45
2024/01/20 12:26:43;;;;;;;1.00;1.00;;;22.00;36.40;;;;;;222629;1268;22527;-46
2024/01/20 12:31:48;;;;;;;1.10;1.00;;;21.90;36.50;;;;;;222565;1262;22984;-46
2024/01/20 12:36:56;;;;;;;1.20;1.10;;;21.90;37.10;;;;;;223054;1267;22524;-45
2024/01/20 12:42:02;;;;;;;1.00;0.90;;;21.80;36.80;;;;;;222781;1260;24215;-48
2024/01/20 12:47:06;;;;;;;1.60;1.20;;;21.70;37.10;;;;;;222600;1264;24082;-46
2024/01/20 12:52:11;;;;;;;2.50;1.10;;;21.70;37.10;;;;;;222514;1262;24636;-48
2024/01/20 12:57:15;;;;;;;1.90;1.20;;;21.80;37.10;;;;;;222346;1263;22525;-49
2024/01/20 13:02:21;;;;;;;2.10;1.00;;;21.80;37.60;;;;;;222654;1253;23886;-46
2024/01/20 13:07:26;;;;;;;1.10;1.00;;;21.90;37.60;;;;;;222559;1265;22527;-48
2024/01/20 13:12:32;;;;;;;1.80;0.90;;;21.90;37.90;;;;;;222231;1265;23296;-47
2024/01/20 13:17:37;;;;;;;1.20;1.10;;;22.00;37.90;;;;;;222317;1265;22552;-49
2024/01/20 13:22:43;;;;;;;1.10;0.80;;;22.10;37.70;;;;;;222886;1259;22542;-46
2024/01/20 13:27:47;;;;;;;1.30;1.00;;;22.10;37.80;;;;;;222379;1253;22514;-46
2024/01/20 13:32:52;;;;;;;1.90;1.00;;;22.30;37.80;;;;;;222551;1262;22521;-48
2024/01/20 13:37:56;;;;;;;1.10;0.90;;;22.30;37.30;;;;;;223048;1263;26222;-48
2024/01/20 13:43:01;;;;;;;1.10;1.00;;;22.30;37.20;;;;;;223737;1265;22906;-48
2024/01/20 13:48:06;;;;;;;1.20;0.90;;;22.40;37.20;;;;;;222092;1267;24229;-45
2024/01/20 13:53:11;;;;;;;0.90;0.80;;;22.40;37.20;;;;;;222861;1263;22629;-47
2024/01/20 13:58:15;;;;;;;1.10;1.00;;;22.30;37.70;;;;;;222493;1268;24365;-45
2024/01/20 14:03:20;;;;;;;1.00;0.80;;;22.30;37.30;;;;;;223190;1263;22521;-47
2024/01/20 14:08:34;;;;;;;0.90;0.80;;;22.20;37.80;;;;;;222373;1267;24254;-47
2024/01/20 14:13:38;;;;;;;1.40;1.00;;;22.20;37.50;;;;;;222756;1250;22633;-46
2024/01/20 14:18:53;;;;;;;1.30;1.00;;;22.20;37.60;;;;;;222177;1267;25072;-47
2024/01/20 14:23:57;;;;;;;1.00;0.90;;;22.20;37.50;;;;;;222788;1267;22534;-46
2024/01/20 14:29:06;;;;;;;1.00;0.90;;;22.30;37.60;;;;;;222416;1266;26555;-47
2024/01/20 14:34:11;;;;;;;0.70;0.70;;;22.30;37.30;;;;;;222724;1265;24282;-46
2024/01/20 14:39:16;;;;;;;1.20;0.90;;;22.30;37.40;;;;;;223736;1267;24469;-44
2024/01/20 14:44:23;;;;;;;1.60;1.30;;;22.20;37.40;;;;;;222740;1266;24197;-47
2024/01/20 14:49:27;;;;;;;1.10;1.00;;;22.20;37.50;;;;;;222275;1267;22525;-46
2024/01/20 14:54:32;;;;;;;1.40;1.30;;;22.20;37.90;;;;;;222460;1267;23125;-45
2024/01/20 14:59:36;;;;;;;1.90;1.30;;;22.20;37.60;;;;;;222168;1263;22543;-46
2024/01/20 15:04:42;;;;;;;1.20;1.00;;;22.20;37.70;;;;;;222526;1261;24249;-47
2024/01/20 15:09:46;;;;;;;1.90;1.00;;;22.20;37.50;;;;;;222414;1266;24200;-51
2024/01/20 15:14:51;;;;;;;1.20;1.10;;;22.30;37.50;;;;;;222637;1261;25496;-45
2024/01/20 15:19:56;;;;;;;1.10;1.10;;;22.30;37.30;;;;;;222539;1263;22517;-47
2024/01/20 15:25:00;;;;;;;1.80;1.20;;;22.30;37.40;;;;;;222998;1267;22559;-45
2024/01/20 15:30:06;;;;;;;1.00;1.00;;;22.30;37.40;;;;;;225451;1268;22771;-46
2024/01/20 15:35:10;;;;;;;1.40;1.00;;;22.30;37.30;;;;;;222860;1266;23905;-46
2024/01/20 15:40:15;;;;;;;1.40;1.20;;;22.30;37.40;;;;;;222715;1265;25427;-46
2024/01/20 15:45:20;;;;;;;1.30;1.20;;;22.40;37.40;;;;;;223777;1268;22524;-48
2024/01/20 15:50:24;;;;;;;1.70;1.10;;;22.40;37.00;;;;;;222101;1266;25160;-48
2024/01/20 15:55:28;;;;;;;1.20;1.00;;;22.60;37.20;;;;;;222171;1265;24199;-46
2024/01/20 16:00:36;;;;;;;1.30;1.20;;;22.50;37.30;;;;;;222593;1265;26188;-48
2024/01/20 16:05:40;;;;;;;1.20;1.10;;;22.50;37.40;;;;;;222545;1267;22790;-48
2024/01/20 16:10:45;;;;;;;1.30;1.10;;;22.40;37.40;;;;;;222532;1268;24986;-47
2024/01/20 16:15:52;;;;;;;1.20;1.10;;;22.50;37.40;;;;;;222538;1266;22777;-49
2024/01/20 16:21:02;;;;;;;1.40;1.10;;;22.50;37.40;;;;;;222375;1262;25400;-46
2024/01/20 16:26:07;;;;;;;1.00;1.00;;;22.50;37.30;;;;;;222304;1261;22631;-46
2024/01/20 16:31:13;;;;;;;0.90;0.70;;;22.50;37.30;;;;;;222145;1266;24195;-45
2024/01/20 16:36:20;;;;;;;1.70;1.30;;;22.50;37.40;;;;;;222485;1268;22583;-45
2024/01/20 16:41:25;;;;;;;1.70;1.10;;;22.40;37.80;;;;;;222613;1268;22637;-49
2024/01/20 16:46:29;;;;;;;0.80;0.80;;;22.60;37.40;;;;;;221802;1268;25456;-47
2024/01/20 16:51:34;;;;;;;1.30;1.20;;;22.60;37.50;;;;;;222104;1260;22525;-47
2024/01/20 16:56:41;;;;;;;2.10;1.60;;;22.70;37.10;;;;;;222437;1267;23140;-47
2024/01/20 17:01:45;;;;;;;1.90;1.40;;;22.70;36.70;;;;;;222626;1267;25325;-45
2024/01/20 17:06:50;;;;;;;1.30;1.20;;;22.80;37.10;;;;;;222036;1268;22527;-46
2024/01/20 17:11:54;;;;;;;1.30;1.20;;;22.70;37.10;;;;;;222172;1267;22644;-45
2024/01/20 17:16:59;;;;;;;1.70;1.20;;;22.70;37.50;;;;;;222687;1250;22518;-48
2024/01/20 17:22:04;;;;;;;1.10;1.00;;;22.80;37.20;;;;;;222259;1263;24190;-48
2024/01/20 17:27:08;;;;;;;1.20;1.10;;;22.80;37.10;;;;;;222246;1264;22527;-47
2024/01/20 17:32:13;;;;;;;1.00;0.80;;;22.70;37.20;;;;;;222732;1267;25272;-47
2024/01/20 17:37:17;;;;;;;1.40;1.10;;;22.80;37.30;;;;;;222745;1266;25455;-45
2024/01/20 17:42:22;;;;;;;1.80;1.40;;;22.70;37.30;;;;;;222690;1267;22529;-46
2024/01/20 17:47:27;;;;;;;1.80;1.70;;;22.70;37.70;;;;;;222265;1266;334992;-48
2024/01/20 17:52:32;;;;;;;2.80;1.50;;;22.70;37.60;;;;;;222768;1252;22540;-47
2024/01/20 17:57:36;;;;;;;1.30;1.20;;;22.70;37.30;;;;;;222551;1266;25412;-46
2024/01/20 18:02:40;;;;;;;1.70;1.30;;;22.80;37.20;;;;;;222185;1250;22723;-46
2024/01/20 18:07:49;;;;;;;1.60;1.30;;;22.80;37.20;;;;;;222500;1267;25274;-47
2024/01/20 18:12:54;;;;;;;1.40;1.30;;;22.90;37.40;;;;;;222357;1264;24398;-45
2024/01/20 18:17:58;;;;;;;1.30;1.10;;;22.90;37.20;;;;;;222201;1268;22517;-45
2024/01/20 18:23:03;;;;;;;1.80;1.30;;;22.90;36.60;;;;;;222422;1268;26584;-47
2024/01/20 18:28:08;;;;;;;1.30;1.20;;;22.90;37.10;;;;;;222620;1267;25598;-46
2024/01/20 18:33:12;;;;;;;3.40;1.90;;;23.00;37.20;;;;;;222048;1257;25278;-48
2024/01/20 18:38:16;;;;;;;1.30;1.20;;;22.90;37.10;;;;;;222545;1268;24356;-47
2024/01/20 18:43:22;;;;;;;0.90;0.90;;;23.00;37.20;;;;;;222605;1267;24192;-44
2024/01/20 18:48:27;;;;;;;2.60;1.80;;;23.00;37.20;;;;;;223069;1262;24253;-48
2024/01/20 18:53:32;;;;;;;1.70;1.30;;;22.90;37.30;;;;;;222466;1266;22564;-48
2024/01/20 18:58:37;;;;;;;1.40;1.10;;;22.90;37.70;;;;;;222612;1266;22520;-49
2024/01/20 19:03:41;;;;;;;1.60;1.50;;;22.80;36.90;;;;;;222670;1265;22524;-44
2024/01/20 19:08:46;;;;;;;1.90;1.60;;;22.90;37.40;;;;;;222498;1261;25352;-46
2024/01/20 19:13:53;;;;;;;1.70;1.50;;;23.00;37.40;;;;;;222115;1265;22796;-47
2024/01/20 19:18:57;;;;;;;2.10;1.60;;;23.00;37.30;;;;;;222877;1253;22521;-49
2024/01/20 19:24:03;;;;;;;2.60;1.80;;;23.00;37.30;;;;;;222430;1257;25177;-47
2024/01/20 19:29:07;;;;;;;1.40;1.30;;;23.00;37.20;;;;;;222187;1267;22562;-48
2024/01/20 19:34:11;;;;;;;1.70;1.40;;;23.00;37.60;;;;;;222066;1257;22695;-49
2024/01/20 19:39:16;;;;;;;1.60;1.40;;;23.00;37.30;;;;;;221667;1271;24209;-49
2024/01/20 19:44:21;;;;;;;2.40;1.80;;;23.00;37.20;;;;;;221934;1264;22526;-46
2024/01/20 19:49:26;;;;;;;3.50;1.80;;;23.00;37.20;;;;;;221785;1270;24197;-48
2024/01/20 19:54:30;;;;;;;1.40;1.30;;;23.00;37.20;;;;;;221674;1271;25508;-45
2024/01/20 19:59:37;;;;;;;1.40;1.30;;;22.90;37.40;;;;;;222193;1261;22782;-45
2024/01/20 20:04:43;;;;;;;2.40;1.70;;;22.80;37.50;;;;;;222493;1261;22803;-48
2024/01/20 20:09:48;;;;;;;2.30;2.00;;;22.80;37.60;;;;;;222188;1260;22527;-46
2024/01/20 20:14:52;;;;;;;1.40;1.20;;;22.80;37.90;;;;;;222464;1267;23382;-47
2024/01/20 20:19:57;;;;;;;2.00;1.40;;;22.80;37.40;;;;;;222507;1266;25771;-46
2024/01/20 20:25:03;;;;;;;2.30;1.50;;;22.80;37.60;;;;;;222695;1254;22530;-47
2024/01/20 20:30:08;;;;;;;1.70;1.50;;;22.80;37.60;;;;;;222773;1264;24295;-48
2024/01/20 20:35:13;;;;;;;2.30;1.70;;;22.90;37.50;;;;;;222793;1255;24270;-46
2024/01/20 20:40:17;;;;;;;2.00;1.30;;;23.00;37.40;;;;;;222659;1261;26504;-46
2024/01/20 20:45:22;;;;;;;2.60;1.70;;;22.90;37.50;;;;;;222803;1266;25274;-47
2024/01/20 20:50:26;;;;;;;3.40;2.10;;;22.90;36.00;;;;;;222886;1264;24363;-47
2024/01/20 20:55:31;;;;;;;5.30;2.30;;;22.80;35.70;;;;;;222554;1253;22535;-46
2024/01/20 21:00:35;;;;;;;5.80;2.60;;;22.70;36.00;;;;;;222711;1264;24234;-46
2024/01/20 21:05:40;;;;;;;4.30;2.10;;;23.00;36.00;;;;;;222672;1244;22676;-45
2024/01/20 21:10:45;;;;;;;3.50;2.40;;;23.20;36.10;;;;;;222938;1264;24427;-44
2024/01/20 21:15:48;;;;;;;2.40;2.20;;;23.30;36.40;;;;;;222575;1260;24187;-44
2024/01/20 21:20:53;;;;;;;5.60;2.40;;;23.30;36.80;;;;;;223074;1261;22679;-43
2024/01/20 21:25:57;;;;;;;2.40;2.10;;;23.20;37.30;;;;;;222718;1267;22557;-48
2024/01/20 21:31:02;;;;;;;7.30;2.30;;;23.00;38.30;;;;;;222577;1267;24228;-49
2024/01/20 21:36:07;;;;;;;10.50;4.10;;;23.00;39.30;;;;;;222740;1266;23513;-48
2024/01/20 21:41:14;;;;;;;11.20;3.50;;;22.90;44.80;;;;;;222570;1263;22621;-48
2024/01/20 21:46:19;;;;;;;6.90;2.40;;;23.10;45.80;;;;;;223599;1248;25443;-47
2024/01/20 21:51:23;;;;;;;15.30;3.00;;;23.00;42.30;;;;;;223871;1264;22626;-49
2024/01/20 21:56:28;;;;;;;9.10;3.10;;;23.00;44.60;;;;;;223079;1267;22559;-48
2024/01/20 22:01:36;;;;;;;5.40;2.30;;;22.90;46.50;;;;;;222857;1263;25397;-48
2024/01/20 22:06:41;;;;;;;7.40;2.40;;;22.90;43.60;;;;;;222569;1266;23924;-47
2024/01/20 22:11:47;;;;;;;6.90;2.40;;;23.00;43.20;;;;;;222815;1261;25219;-49
2024/01/20 22:16:51;;;;;;;10.40;2.70;;;23.00;43.00;;;;;;222634;1260;25288;-50
2024/01/20 22:21:56;;;;;;;6.60;2.20;;;23.30;44.30;;;;;;222207;1257;25287;-48
2024/01/20 22:27:02;;;;;;;6.50;2.70;;;23.10;42.50;;;;;;222348;1263;24270;-47
2024/01/20 22:32:06;;;;;;;28.80;4.00;;;23.10;42.50;;;;;;222440;1267;22516;-51
2024/01/20 22:37:10;;;;;;;4.10;2.20;;;23.30;44.60;;;;;;222101;1257;22543;-48
2024/01/20 22:42:14;;;;;;;8.50;2.60;;;23.30;46.30;;;;;;222552;1266;24161;-47
2024/01/20 22:47:19;;;;;;;8.00;2.20;;;23.30;46.00;;;;;;222143;1260;22531;-45
2024/01/20 22:52:25;;;;;;;5.50;2.20;;;23.10;44.60;;;;;;220788;1260;22553;-54
2024/01/20 22:57:29;;;;;;;4.40;2.50;;;23.10;44.60;;;;;;221287;1267;23022;-55
2024/01/20 23:02:34;;;;;;;5.60;2.30;;;23.10;44.10;;;;;;221137;1270;22920;-55
2024/01/20 23:07:38;;;;;;;6.70;2.30;;;23.10;44.20;;;;;;221060;1267;22539;-55
2024/01/20 23:12:42;;;;;;;5.30;2.30;;;23.10;44.30;;;;;;221551;1267;22544;-54
2024/01/20 23:17:46;;;;;;;3.60;1.60;;;23.10;43.80;;;;;;222557;1267;22539;-54
2024/01/20 23:22:51;;;;;;;4.60;2.20;;;23.10;43.40;;;;;;222863;1266;24235;-54
2024/01/20 23:27:55;;;;;;;4.90;2.00;;;23.20;43.60;;;;;;222895;1264;22801;-53
2024/01/20 23:33:00;;;;;;;3.40;2.00;;;23.30;44.00;;;;;;224313;1268;22610;-52
2024/01/20 23:38:04;;;;;;;7.20;1.70;;;23.40;43.60;;;;;;229429;1265;22486;-54
2024/01/20 23:43:10;;;;;;;6.40;1.80;;;23.80;42.90;;;;;;229468;1265;22167;-56
2024/01/20 23:48:17;;;;;;;2.40;1.50;;;23.80;42.90;;;;;;229293;1265;24216;-54
2024/01/20 23:53:21;;;;;;;4.50;1.70;;;23.70;42.80;;;;;;228993;1260;22818;-54
2024/01/20 23:58:25;;;;;;;3.10;2.00;;;23.50;42.60;;;;;;229082;1267;22659;-54
